createdAt,value
2017-02-24T19:22:33.068Z,73.77
2017-02-24T19:23:41.962Z,74.54
2017-02-24T19:24:50.879Z,73.38
2017-02-24T19:26:00.593Z,73.38
2017-02-24T19:27:09.564Z,73.28
2017-02-24T19:28:18.460Z,73.67
2017-02-24T19:29:27.361Z,73.47
2017-02-24T19:30:36.250Z,73.38
2017-02-24T19:31:45.141Z,73.47
2017-02-24T19:32:54.032Z,73.86
2017-02-24T19:34:03.335Z,73.96
2017-02-24T19:35:12.257Z,73.38
2017-02-24T19:36:21.142Z,73.28
2017-02-24T19:37:30.046Z,73.28
2017-02-24T19:38:38.939Z,73.57
2017-02-24T19:39:47.851Z,73.28
2017-02-24T19:40:57.174Z,73.57
2017-02-24T19:42:06.082Z,73.47
2017-02-24T19:43:15.103Z,73.77
2017-02-24T19:44:24.016Z,73.9
2017-02-24T19:45:32.923Z,73.9
2017-02-24T19:46:41.811Z,73.99
2017-02-24T19:47:50.697Z,74.96
2017-02-24T19:48:59.589Z,74.34
2017-02-24T19:50:08.479Z,74.25
2017-02-24T19:51:17.403Z,74.54
2017-02-24T19:52:26.296Z,75.11
2017-02-24T19:53:35.188Z,75.15
2017-02-24T19:54:44.115Z,74.86
2017-02-24T19:55:53.031Z,74.63
2017-02-24T19:57:01.930Z,74.86
2017-02-24T19:58:10.823Z,74.73
2017-02-24T19:59:19.708Z,74.15
2017-02-24T20:00:28.585Z,74.15
2017-02-24T20:01:37.895Z,74.38
2017-02-24T20:02:46.836Z,74.29
2017-02-24T20:03:55.747Z,74.09
2017-02-24T20:05:04.713Z,74.09
2017-02-24T20:06:13.659Z,74.48
2017-02-24T20:07:22.618Z,74.19
2017-02-24T20:08:31.802Z,74.38
2017-02-24T20:09:41.530Z,74.48
2017-02-24T20:10:50.960Z,74.19
2017-02-24T20:11:59.954Z,74.48
2017-02-24T20:13:08.927Z,74.38
2017-02-24T20:14:17.961Z,74.38
2017-02-24T20:15:26.846Z,74.38
2017-02-24T20:16:36.084Z,74.29
2017-02-24T20:17:45.565Z,74.19
2017-02-24T20:18:54.494Z,74.29
2017-02-24T20:20:03.586Z,74.38
2017-02-24T20:21:12.561Z,74.29
2017-02-24T20:22:21.558Z,74.29
2017-02-24T20:23:30.651Z,74.29
2017-02-24T20:24:39.563Z,74.48
2017-02-24T20:25:48.464Z,74.38
2017-02-24T20:26:57.756Z,73.99
2017-02-24T20:28:06.730Z,74.19
2017-02-24T20:29:15.635Z,74.38
2017-02-24T20:30:24.559Z,74.38
2017-02-24T20:31:33.479Z,74.57
2017-02-24T20:32:42.367Z,74.76
2017-02-24T20:33:51.260Z,74.29
2017-02-24T20:35:00.538Z,74.38
2017-02-24T20:36:09.445Z,74.57
2017-02-24T20:37:18.378Z,74.19
2017-02-24T20:38:27.703Z,74.32
2017-02-24T20:39:36.600Z,74.13
2017-02-24T20:40:45.491Z,74.67
2017-02-24T20:41:54.380Z,73.99
2017-02-24T20:43:03.276Z,74.03
2017-02-24T20:44:12.650Z,74.32
2017-02-24T20:45:21.700Z,74.22
2017-02-24T20:46:31.103Z,74.41
2017-02-24T20:47:40.087Z,74.41
2017-02-24T20:48:49.337Z,74.03
2017-02-24T20:49:59.376Z,74.13
2017-02-24T20:51:08.509Z,74.13
2017-02-24T20:52:18.642Z,74.32
2017-02-24T20:53:27.694Z,74.51
2017-02-24T20:54:37.803Z,74.13
2017-02-24T20:55:46.840Z,74.32
2017-02-24T20:56:56.388Z,74.61
2017-02-24T20:58:06.905Z,74.22
2017-02-24T20:59:15.993Z,74.03
2017-02-24T21:00:25.413Z,74.32
2017-02-24T21:01:34.404Z,73.84
2017-02-24T21:02:44.800Z,74.03
2017-02-24T21:03:58.031Z,73.94
2017-02-24T21:05:08.056Z,74.32
2017-02-24T21:06:17.282Z,73.94
2017-02-24T21:07:28.629Z,74.13
2017-02-24T21:08:38.011Z,73.94
2017-02-24T21:09:47.138Z,74.03
2017-02-24T21:10:56.129Z,74.51
2017-02-24T21:12:05.023Z,74.13
2017-02-24T21:13:13.938Z,74.03
2017-02-24T21:14:22.955Z,74.03
2017-02-24T21:15:32.096Z,74.51
2017-02-24T21:16:40.988Z,74.07
2017-02-24T21:17:49.888Z,74.13
2017-02-24T21:18:58.800Z,73.84
2017-02-24T21:20:07.835Z,73.74
2017-02-24T21:21:17.030Z,73.65
2017-02-24T21:22:26.316Z,74.03
2017-02-24T21:23:35.700Z,74.07
2017-02-24T21:24:44.647Z,73.78
2017-02-24T21:25:53.606Z,73.94
2017-02-24T21:27:02.532Z,74.03
2017-02-24T21:28:11.423Z,73.94
2017-02-24T21:29:20.677Z,73.84
2017-02-24T21:30:29.648Z,74.03
2017-02-24T21:31:38.561Z,73.68
2017-02-24T21:32:47.487Z,73.84
2017-02-24T21:33:56.407Z,73.88
2017-02-24T21:35:05.735Z,73.74
2017-02-24T21:36:14.653Z,73.84
2017-02-24T21:37:23.940Z,73.78
2017-02-24T21:38:33.230Z,74.07
2017-02-24T21:39:42.559Z,73.88
2017-02-24T21:40:52.146Z,73.88
2017-02-24T21:42:01.044Z,74.07
2017-02-24T21:43:09.939Z,73.88
2017-02-24T21:44:18.874Z,73.88
2017-02-24T21:45:27.761Z,73.88
2017-02-24T21:46:36.661Z,73.97
2017-02-24T21:47:45.562Z,73.88
2017-02-24T21:48:54.476Z,73.49
2017-02-24T21:50:03.380Z,73.78
2017-02-24T21:51:12.266Z,73.58
2017-02-24T21:52:21.146Z,73.39
2017-02-24T21:53:30.054Z,73.49
2017-02-24T21:54:38.976Z,73.58
2017-02-24T21:55:47.890Z,73.58
2017-02-24T21:56:56.788Z,73.39
2017-02-24T21:58:06.110Z,73.49
2017-02-24T21:59:14.997Z,73.58
2017-02-24T22:00:23.887Z,73.58
2017-02-24T22:01:32.766Z,73.58
2017-02-24T22:02:41.674Z,73.49
2017-02-24T22:03:50.560Z,73.3
2017-02-24T22:04:59.455Z,73.33
2017-02-24T22:06:08.349Z,73.62
2017-02-24T22:07:17.245Z,73.24
2017-02-24T22:08:26.139Z,73.62
2017-02-24T22:09:35.025Z,73.43
2017-02-24T22:10:43.933Z,73.62
2017-02-24T22:11:53.228Z,73.33
2017-02-24T22:13:02.138Z,73.33
2017-02-24T22:14:11.032Z,73.91
2017-02-24T22:15:19.995Z,73.43
2017-02-24T22:16:28.875Z,73.24
2017-02-24T22:17:37.785Z,73.33
2017-02-24T22:18:46.681Z,73.05
2017-02-24T22:19:55.595Z,73.24
2017-02-24T22:21:04.529Z,72.95
2017-02-24T22:22:13.428Z,72.75
2017-02-24T22:23:22.727Z,73.05
2017-02-24T22:24:31.629Z,73.24
2017-02-24T22:25:40.539Z,73.14
2017-02-24T22:26:49.419Z,73.05
2017-02-24T22:27:58.315Z,73.14
2017-02-24T22:29:07.246Z,72.66
2017-02-24T22:30:16.166Z,72.75
2017-02-24T22:31:25.053Z,73.05
2017-02-24T22:32:33.994Z,73.14
2017-02-24T22:33:42.892Z,72.75
2017-02-24T22:34:51.833Z,72.08
2017-02-24T22:36:00.753Z,72.75
2017-02-24T22:37:09.660Z,72.27
2017-02-24T22:38:18.575Z,72.18
2017-02-24T22:39:27.457Z,72.47
2017-02-24T22:40:36.358Z,72.47
2017-02-24T22:41:45.252Z,72.37
2017-02-24T22:42:54.153Z,72.18
2017-02-24T22:44:03.046Z,72.37
2017-02-24T22:45:11.971Z,72.27
2017-02-24T22:46:20.863Z,72.18
2017-02-24T22:47:29.746Z,72.18
2017-02-24T22:48:40.191Z,72.27
2017-02-24T22:49:51.049Z,72.56
2017-02-24T22:51:02.352Z,72.18
2017-02-24T22:52:11.251Z,72.47
2017-02-24T22:53:21.340Z,72.18
2017-02-24T22:54:31.309Z,72.08
2017-02-24T22:55:40.233Z,72.47
2017-02-24T22:56:50.538Z,72.18
2017-02-24T22:57:59.433Z,72.27
2017-02-24T22:59:08.317Z,72.27
2017-02-24T23:00:17.301Z,72.47
2017-02-24T23:01:26.599Z,73.05
2017-02-24T23:02:37.842Z,72.47
2017-02-24T23:03:47.325Z,72.56
2017-02-24T23:04:56.234Z,72.27
2017-02-24T23:06:05.306Z,72.18
2017-02-24T23:07:14.315Z,72.18
2017-02-24T23:08:23.412Z,72.27
2017-02-24T23:09:32.756Z,72.18
2017-02-24T23:10:42.808Z,72.18
2017-02-24T23:11:52.172Z,72.18
2017-02-24T23:13:02.044Z,72.18
2017-02-24T23:14:12.878Z,72.27
2017-02-24T23:15:21.882Z,72.56
2017-02-24T23:16:31.469Z,67.55
2017-02-24T23:17:40.938Z,63.7
2017-02-24T23:18:50.189Z,61.93
2017-02-24T23:19:59.306Z,60.46
2017-02-24T23:21:09.056Z,60.62
2017-02-24T23:22:18.060Z,59.75
2017-02-24T23:23:27.009Z,59.17
2017-02-24T23:24:35.971Z,58.95
2017-02-24T23:25:45.224Z,58.57
2017-02-24T23:26:54.219Z,58.64
2017-02-24T23:28:03.735Z,58.45
2017-02-24T23:29:13.045Z,58.92
2017-02-24T23:30:22.489Z,58.45
2017-02-24T23:31:31.803Z,57.77
2017-02-24T23:32:41.026Z,58.32
2017-02-24T23:33:50.004Z,58.8
2017-02-24T23:34:58.988Z,58.58
2017-02-24T23:36:07.988Z,58.48
2017-02-24T23:37:17.266Z,57.9
2017-02-24T23:38:26.346Z,58.67
2017-02-24T23:39:35.452Z,57.23
2017-02-24T23:40:44.411Z,57.5
2017-02-24T23:41:53.781Z,56.82
2017-02-24T23:43:03.183Z,57.11
2017-02-24T23:44:12.330Z,57.88
2017-02-24T23:45:21.640Z,57.65
2017-02-24T23:46:30.716Z,58.23
2017-02-24T23:47:39.716Z,58.42
2017-02-24T23:48:48.691Z,57.65
2017-02-24T23:49:57.720Z,56.89
2017-02-24T23:51:06.701Z,57.75
2017-02-24T23:52:15.679Z,57.56
2017-02-24T23:53:24.727Z,57.06
2017-02-24T23:54:34.131Z,57.65
2017-02-24T23:55:43.535Z,57.63
2017-02-24T23:56:52.700Z,57.53
2017-02-24T23:58:01.647Z,57.72
2017-02-24T23:59:10.530Z,57.43
